Giddings, Texas
Current Conditions -  °F | °C
As of 8:35 PM on Thursday 20 Nov 2014 (Local Time) from KGYB Reporting Station
Light Rain Light Rain  
Wind Chill: 61°   Ceiling: 500
Heat Index: 61°   Visibility: 5mi
Dew Point: 59°   Wind: 7mph
Humidity: 95%   Direction: 150°SSE
Pressure: 30.11"   Gusts: NA
Location:  30.18°N, 96.94°W
Report Text: KGYB 210235Z AUTO 15006KT 5SM -RA OVC005 16/15 A3011 RMK AO2 T01600152
Loading
Personal Weather Stations






























Interactive Weather Map New forecast layout! Learn more

10-Day Weather Forecast

Advertisements
Track Severe Weather on mobile